Time;durP1;ratioP1;P1;durP2;ratioP2;P2;SDS_P1;SDS_P2;PMS_P1;PMS_P2;Temp;Humidity;BMP_temperature;BMP_pressure;BME280_temperature;BME280_humidity;BME280_pressure;Samples;Min_cycle;Max_cycle;Signal;HPM_P1;HPM_P2
2021/12/06 00:02:16;;;;;;;61.10;29.27;;;1.40;99.90;;;;;;5013361;28;20033;-45
2021/12/06 00:04:42;;;;;;;59.35;27.98;;;1.40;99.90;;;;;;5013316;28;20034;-44
2021/12/06 00:07:12;;;;;;;53.22;25.10;;;1.40;99.90;;;;;;5013642;28;20492;-45
2021/12/06 00:09:40;;;;;;;51.63;23.63;;;1.40;99.90;;;;;;5012344;28;20033;-47
2021/12/06 00:12:06;;;;;;;54.55;24.60;;;1.40;99.90;;;;;;5013333;28;20152;-46
2021/12/06 00:14:36;;;;;;;57.67;26.30;;;1.50;99.90;;;;;;5013318;28;20037;-44
2021/12/06 00:17:05;;;;;;;57.72;26.65;;;1.50;99.90;;;;;;5013360;28;20036;-46
2021/12/06 00:19:30;;;;;;;52.65;26.55;;;1.50;99.90;;;;;;5013325;28;20014;-44
2021/12/06 00:21:58;;;;;;;59.58;26.77;;;1.50;99.90;;;;;;5012837;28;20040;-43
2021/12/06 00:24:24;;;;;;;57.20;29.67;;;1.50;99.90;;;;;;5012071;28;20393;-44
2021/12/06 00:26:50;;;;;;;56.60;26.05;;;1.40;99.90;;;;;;5013168;28;20034;-45
2021/12/06 00:29:16;;;;;;;55.80;28.08;;;1.40;99.90;;;;;;5012756;28;20037;-48
2021/12/06 00:31:41;;;;;;;51.17;24.42;;;1.40;99.90;;;;;;5014575;28;20105;-46
2021/12/06 00:34:13;;;;;;;57.65;27.63;;;1.40;99.90;;;;;;5014430;28;20033;-46
2021/12/06 00:36:43;;;;;;;47.38;23.92;;;1.40;99.90;;;;;;5014846;28;20037;-46
2021/12/06 00:39:12;;;;;;;55.47;26.35;;;1.40;99.90;;;;;;5013494;28;20022;-50
2021/12/06 00:41:39;;;;;;;62.50;29.48;;;1.40;99.90;;;;;;5014669;28;20045;-45
2021/12/06 00:44:07;;;;;;;51.40;23.70;;;1.30;99.90;;;;;;4996889;28;20133;-46
2021/12/06 00:46:33;;;;;;;50.25;22.42;;;1.30;99.90;;;;;;5014601;28;20472;-43
2021/12/06 00:48:59;;;;;;;49.80;24.15;;;1.40;99.90;;;;;;5014107;28;20061;-46
2021/12/06 00:51:24;;;;;;;57.60;26.00;;;1.40;99.90;;;;;;5014458;28;20034;-47
2021/12/06 00:53:50;;;;;;;51.72;25.55;;;1.40;99.90;;;;;;5013132;28;20030;-44
2021/12/06 00:56:16;;;;;;;53.70;25.92;;;1.40;99.90;;;;;;5014401;28;20022;-47
2021/12/06 00:58:43;;;;;;;49.38;23.85;;;1.30;99.90;;;;;;5014300;28;20030;-48
2021/12/06 01:01:09;;;;;;;54.22;27.23;;;1.30;99.90;;;;;;5014106;28;20018;-44
2021/12/06 01:03:38;;;;;;;55.58;26.38;;;1.20;99.90;;;;;;5014102;28;20034;-46
2021/12/06 01:06:05;;;;;;;51.00;23.60;;;1.10;99.90;;;;;;5014024;28;20061;-44
2021/12/06 01:08:30;;;;;;;51.28;24.73;;;1.10;99.90;;;;;;5013196;28;20025;-43
2021/12/06 01:10:57;;;;;;;41.10;20.88;;;1.00;99.90;;;;;;5014021;28;20030;-42
2021/12/06 01:13:23;;;;;;;44.95;22.55;;;1.00;99.90;;;;;;5013832;28;20033;-44
2021/12/06 01:15:49;;;;;;;45.00;21.95;;;0.90;99.90;;;;;;5013893;28;20025;-47
2021/12/06 01:18:17;;;;;;;48.42;22.08;;;0.90;99.90;;;;;;5013780;28;20053;-48
2021/12/06 01:21:11;;;;;;;50.47;23.80;;;0.90;99.90;;;;;;5013986;28;20061;-45
2021/12/06 01:23:47;;;;;;;51.67;24.35;;;0.80;99.90;;;;;;5012028;28;20169;-44
2021/12/06 01:31:50;;;;;;;57.78;27.42;;;0.80;99.90;;;;;;5013665;28;20085;-44
2021/12/06 01:39:32;;;;;;;46.88;21.15;;;0.80;99.90;;;;;;5012175;28;20033;-46
2021/12/06 01:42:00;;;;;;;55.15;26.85;;;0.80;99.90;;;;;;5013441;28;20026;-43
2021/12/06 01:44:29;;;;;;;51.80;27.15;;;0.80;99.90;;;;;;5012645;28;20036;-45
2021/12/06 01:46:58;;;;;;;46.90;24.88;;;0.70;99.90;;;;;;5013293;28;20065;-45
2021/12/06 01:49:28;;;;;;;58.30;26.13;;;0.70;99.90;;;;;;5013005;28;20061;-47
2021/12/06 01:51:56;;;;;;;53.63;27.20;;;0.70;99.90;;;;;;5013197;28;20473;-46
2021/12/06 01:54:22;;;;;;;55.28;26.42;;;0.70;99.90;;;;;;5012167;28;20037;-43
2021/12/06 01:56:50;;;;;;;55.03;26.90;;;0.70;99.90;;;;;;5013356;28;20368;-44
2021/12/06 01:59:16;;;;;;;49.75;24.05;;;0.70;99.90;;;;;;5013130;28;20018;-46
2021/12/06 02:01:42;;;;;;;48.53;24.70;;;0.70;99.90;;;;;;5013224;28;20026;-44
2021/12/06 02:04:08;;;;;;;50.47;23.92;;;0.70;99.90;;;;;;5012813;28;20037;-48
2021/12/06 02:06:35;;;;;;;51.38;25.13;;;0.70;99.90;;;;;;5013114;28;20034;-43
2021/12/06 02:09:02;;;;;;;44.15;21.02;;;0.70;99.90;;;;;;5012003;28;20026;-45
2021/12/06 02:11:31;;;;;;;48.22;24.10;;;0.70;99.90;;;;;;5012982;28;20400;-45
2021/12/06 02:16:58;;;;;;;54.33;23.48;;;0.60;99.90;;;;;;5012999;28;20382;-43
2021/12/06 02:19:30;;;;;;;48.10;21.30;;;0.70;99.90;;;;;;5012761;28;20428;-44
2021/12/06 02:21:56;;;;;;;51.40;23.98;;;0.70;99.90;;;;;;5012902;28;20030;-46
2021/12/06 02:24:23;;;;;;;54.45;22.52;;;0.70;99.90;;;;;;5011931;28;20033;-44
2021/12/06 02:26:51;;;;;;;53.83;22.00;;;0.70;99.90;;;;;;5012902;28;20034;-47
2021/12/06 02:29:18;;;;;;;43.05;19.77;;;0.70;99.90;;;;;;5012688;28;20469;-45
2021/12/06 02:31:44;;;;;;;38.22;17.67;;;0.70;99.90;;;;;;5012614;28;20034;-48
2021/12/06 02:34:10;;;;;;;45.30;20.55;;;0.70;99.90;;;;;;5012636;28;20435;-44
2021/12/06 02:36:35;;;;;;;49.20;22.70;;;0.80;99.90;;;;;;5012858;28;20018;-44
2021/12/06 02:39:03;;;;;;;49.03;22.33;;;0.80;99.90;;;;;;5011618;28;20064;-47
2021/12/06 02:41:29;;;;;;;48.72;20.30;;;0.80;99.90;;;;;;5012605;28;20033;-44
2021/12/06 02:43:55;;;;;;;49.03;20.23;;;0.80;99.90;;;;;;5012596;28;20080;-46
2021/12/06 02:46:22;;;;;;;37.63;17.08;;;0.90;99.90;;;;;;5012720;28;20029;-43
2021/12/06 02:48:47;;;;;;;35.67;16.77;;;0.90;99.90;;;;;;5012320;28;20365;-44
2021/12/06 02:51:15;;;;;;;39.95;18.42;;;0.90;99.90;;;;;;5012603;28;20045;-43
2021/12/06 02:53:41;;;;;;;41.15;19.23;;;0.90;99.90;;;;;;5011472;28;20469;-44
2021/12/06 02:58:56;;;;;;;51.60;25.15;;;0.90;99.90;;;;;;5016380;28;20029;-47
2021/12/06 03:01:27;;;;;;;42.00;20.15;;;0.80;99.90;;;;;;5016634;28;20109;-44
2021/12/06 03:03:55;;;;;;;47.63;19.50;;;0.80;99.90;;;;;;5016178;28;20092;-45
2021/12/06 03:06:21;;;;;;;46.35;20.60;;;0.90;99.90;;;;;;5016398;28;20066;-44
2021/12/06 03:09:00;;;;;;;40.00;20.50;;;0.90;99.90;;;;;;5015403;28;20104;-43
2021/12/06 03:11:41;;;;;;;42.92;20.35;;;0.90;99.90;;;;;;5016262;28;20034;-45
2021/12/06 03:14:11;;;;;;;49.67;19.75;;;1.00;99.90;;;;;;5015970;28;20030;-44
2021/12/06 03:16:37;;;;;;;48.80;20.88;;;1.00;99.90;;;;;;5016309;28;20034;-47
2021/12/06 03:19:05;;;;;;;40.38;19.20;;;1.00;99.90;;;;;;5015862;28;20018;-44
2021/12/06 03:21:31;;;;;;;48.05;22.17;;;1.00;99.90;;;;;;5016237;28;20022;-45
2021/12/06 03:23:57;;;;;;;44.92;20.50;;;1.00;99.90;;;;;;5014854;28;20030;-44
2021/12/06 03:26:24;;;;;;;44.45;22.25;;;1.00;99.90;;;;;;5016177;28;20386;-47
2021/12/06 03:28:49;;;;;;;47.58;23.17;;;1.00;99.90;;;;;;5015882;28;20417;-44
2021/12/06 03:31:15;;;;;;;48.97;22.42;;;1.00;99.90;;;;;;4998299;28;20037;-48
2021/12/06 03:33:44;;;;;;;49.80;22.27;;;1.00;99.90;;;;;;5015801;28;20388;-46
2021/12/06 03:36:10;;;;;;;41.75;19.77;;;1.00;99.90;;;;;;5015759;28;20040;-44
2021/12/06 03:38:37;;;;;;;45.45;20.23;;;1.00;99.90;;;;;;4997231;28;20034;-46
2021/12/06 03:41:05;;;;;;;46.30;21.30;;;1.00;99.90;;;;;;5015574;28;20037;-47
2021/12/06 03:43:32;;;;;;;45.80;23.25;;;0.90;99.90;;;;;;5015776;28;20068;-46
2021/12/06 03:45:58;;;;;;;40.13;21.67;;;0.90;99.90;;;;;;5015792;28;20543;-45
2021/12/06 03:48:24;;;;;;;44.55;23.20;;;0.90;99.90;;;;;;5015502;28;20113;-44
2021/12/06 03:50:49;;;;;;;44.00;21.55;;;0.90;99.90;;;;;;5015377;28;20054;-45
2021/12/06 03:53:15;;;;;;;43.65;19.80;;;0.90;99.90;;;;;;5014314;28;20053;-47
2021/12/06 03:55:40;;;;;;;41.05;20.38;;;0.90;99.90;;;;;;5015577;28;20029;-47
2021/12/06 03:58:06;;;;;;;36.85;16.80;;;0.90;99.90;;;;;;5015412;28;20058;-43
2021/12/06 04:00:33;;;;;;;43.00;19.27;;;0.90;99.90;;;;;;5015397;28;20177;-43
2021/12/06 04:02:59;;;;;;;46.17;20.55;;;0.90;99.90;;;;;;5015278;28;20028;-46
2021/12/06 04:05:25;;;;;;;44.28;19.08;;;1.00;99.90;;;;;;5015174;28;20488;-44
2021/12/06 04:07:50;;;;;;;41.63;18.42;;;0.90;99.90;;;;;;5014746;28;20022;-44
2021/12/06 04:10:16;;;;;;;37.67;18.02;;;1.00;99.90;;;;;;5014139;28;20038;-45
2021/12/06 04:12:41;;;;;;;43.55;18.35;;;1.00;99.90;;;;;;5015197;28;20038;-47
2021/12/06 04:15:10;;;;;;;37.40;17.85;;;1.00;99.90;;;;;;5014966;28;20030;-48
2021/12/06 04:17:37;;;;;;;41.17;19.30;;;1.00;99.90;;;;;;5015142;28;20484;-44
2021/12/06 04:20:07;;;;;;;45.55;18.90;;;1.00;99.90;;;;;;5014718;28;20489;-44
2021/12/06 04:22:32;;;;;;;41.67;18.35;;;1.00;99.90;;;;;;5014996;28;20026;-45
2021/12/06 04:25:01;;;;;;;37.40;18.35;;;1.00;99.90;;;;;;5013999;28;20388;-44
2021/12/06 04:27:27;;;;;;;42.42;20.30;;;1.00;99.90;;;;;;5014900;28;20666;-45
2021/12/06 04:29:53;;;;;;;43.10;21.42;;;1.00;99.90;;;;;;5014877;28;20469;-48
2021/12/06 04:32:20;;;;;;;40.00;18.67;;;0.90;99.90;;;;;;5014783;28;20037;-44
2021/12/06 04:34:46;;;;;;;44.92;20.52;;;0.90;99.90;;;;;;5014379;28;20032;-46
2021/12/06 04:37:12;;;;;;;47.90;22.98;;;1.00;99.90;;;;;;5014679;28;20101;-44
2021/12/06 04:39:38;;;;;;;41.25;19.77;;;0.90;99.90;;;;;;5013598;28;20030;-44
2021/12/06 04:42:04;;;;;;;44.72;22.30;;;0.90;99.90;;;;;;5014600;28;20026;-45
2021/12/06 04:44:30;;;;;;;45.05;20.60;;;0.90;99.90;;;;;;5014364;28;20676;-45
2021/12/06 04:46:56;;;;;;;41.92;21.05;;;0.90;99.90;;;;;;5014681;28;20118;-44
2021/12/06 04:49:25;;;;;;;39.20;19.73;;;0.90;99.90;;;;;;5014091;28;20096;-46
2021/12/06 04:51:53;;;;;;;37.05;18.80;;;0.90;99.90;;;;;;5014364;28;20393;-44
2021/12/06 04:54:22;;;;;;;48.00;20.48;;;0.90;99.90;;;;;;5013208;28;20121;-46
2021/12/06 04:56:55;;;;;;;42.30;19.92;;;1.00;99.90;;;;;;5014425;28;20145;-48
2021/12/06 04:59:34;;;;;;;41.00;19.20;;;1.00;99.90;;;;;;5014253;28;20033;-44
2021/12/06 05:02:13;;;;;;;46.00;21.30;;;1.00;99.90;;;;;;5014130;28;20030;-44
2021/12/06 05:04:41;;;;;;;36.10;17.15;;;1.00;99.90;;;;;;4994179;28;20030;-43
2021/12/06 05:07:22;;;;;;;35.58;15.98;;;1.00;99.90;;;;;;4994638;28;20023;-44
2021/12/06 05:09:47;;;;;;;39.28;18.40;;;1.00;99.90;;;;;;4993634;28;20026;-47
2021/12/06 05:12:16;;;;;;;41.65;18.38;;;1.00;99.90;;;;;;4994441;28;20029;-47
2021/12/06 05:14:41;;;;;;;38.08;18.90;;;1.00;99.90;;;;;;4994165;28;20045;-46
2021/12/06 05:17:07;;;;;;;38.88;19.50;;;1.00;99.90;;;;;;4994381;28;20030;-49
2021/12/06 05:19:33;;;;;;;49.03;20.50;;;1.00;99.90;;;;;;5032126;28;20429;-47
2021/12/06 05:21:59;;;;;;;42.88;20.45;;;1.00;99.90;;;;;;5033405;28;20021;-46
2021/12/06 05:24:24;;;;;;;37.78;18.67;;;1.00;99.90;;;;;;5032568;28;20044;-46
2021/12/06 05:26:50;;;;;;;41.30;19.50;;;1.00;99.90;;;;;;5033475;28;20439;-48
2021/12/06 05:29:20;;;;;;;38.42;19.05;;;1.00;99.90;;;;;;5033355;28;20104;-44
2021/12/06 05:31:54;;;;;;;44.13;21.45;;;1.10;99.90;;;;;;5033413;28;20031;-44
2021/12/06 05:34:27;;;;;;;33.22;15.95;;;1.00;99.90;;;;;;5033254;28;20063;-44
2021/12/06 05:36:53;;;;;;;37.00;17.67;;;1.00;99.90;;;;;;5033212;28;20059;-50
2021/12/06 05:39:19;;;;;;;38.17;17.73;;;1.00;99.90;;;;;;5032302;28;20025;-51
2021/12/06 05:41:44;;;;;;;34.60;15.68;;;1.00;99.90;;;;;;5033058;28;20453;-46
2021/12/06 05:44:10;;;;;;;37.45;18.77;;;1.10;99.90;;;;;;5019240;28;20030;-48
2021/12/06 05:46:36;;;;;;;36.42;17.73;;;1.10;99.90;;;;;;5012985;28;20037;-45
2021/12/06 05:49:01;;;;;;;42.17;18.35;;;1.10;99.90;;;;;;5013119;28;20591;-50
2021/12/06 05:51:27;;;;;;;32.05;16.73;;;1.10;99.90;;;;;;5010395;28;20030;-46
2021/12/06 05:53:52;;;;;;;40.08;18.73;;;1.10;99.90;;;;;;5012060;28;20056;-46
2021/12/06 05:56:18;;;;;;;38.70;17.48;;;1.10;99.90;;;;;;5012416;28;20042;-47
2021/12/06 05:58:43;;;;;;;35.90;17.27;;;1.10;99.90;;;;;;5012996;28;20504;-44
2021/12/06 06:01:09;;;;;;;43.45;18.15;;;1.10;99.90;;;;;;5013090;28;20042;-44
2021/12/06 06:03:35;;;;;;;41.65;20.25;;;1.20;99.90;;;;;;5013008;28;20041;-44
2021/12/06 06:06:01;;;;;;;38.58;18.30;;;1.10;99.90;;;;;;5012790;28;20061;-46
2021/12/06 06:08:26;;;;;;;36.35;17.63;;;1.20;99.90;;;;;;5012110;28;20036;-44
2021/12/06 06:10:52;;;;;;;36.03;17.58;;;1.10;99.90;;;;;;5012741;28;20025;-46
2021/12/06 06:13:19;;;;;;;39.28;18.70;;;1.20;99.90;;;;;;5012876;28;20032;-45
2021/12/06 06:15:45;;;;;;;37.33;18.65;;;1.20;99.90;;;;;;5012798;28;20022;-47
2021/12/06 06:18:11;;;;;;;43.15;19.48;;;1.20;99.90;;;;;;5012854;28;20029;-47
2021/12/06 06:20:36;;;;;;;37.42;18.95;;;1.20;99.90;;;;;;5012923;28;20384;-46
2021/12/06 06:23:02;;;;;;;41.03;19.38;;;1.20;99.90;;;;;;5012769;28;20041;-47
2021/12/06 06:25:29;;;;;;;36.72;17.48;;;1.20;99.90;;;;;;5011574;28;20036;-45
2021/12/06 06:27:55;;;;;;;40.33;17.80;;;1.20;99.90;;;;;;4995349;28;20038;-50
2021/12/06 06:30:21;;;;;;;36.63;17.92;;;1.30;99.90;;;;;;5012566;28;20148;-44
2021/12/06 06:32:46;;;;;;;40.30;16.50;;;1.30;99.90;;;;;;5012681;28;20444;-44
2021/12/06 06:35:13;;;;;;;35.97;16.98;;;1.30;99.90;;;;;;5012752;28;20462;-46
2021/12/06 06:37:39;;;;;;;36.95;17.95;;;1.30;99.90;;;;;;5012582;28;20079;-50
2021/12/06 06:40:05;;;;;;;38.20;17.27;;;1.40;99.90;;;;;;5011699;28;20034;-46
2021/12/06 06:42:31;;;;;;;34.40;16.95;;;1.40;99.90;;;;;;4994871;28;20026;-46
2021/12/06 06:44:57;;;;;;;37.63;16.67;;;1.40;99.90;;;;;;5012819;28;20089;-47
2021/12/06 06:47:24;;;;;;;33.85;16.75;;;1.50;99.90;;;;;;5012503;28;20088;-48
2021/12/06 06:49:50;;;;;;;32.20;14.77;;;1.60;99.90;;;;;;5012690;28;20131;-46
2021/12/06 06:52:16;;;;;;;36.85;16.25;;;1.60;99.90;;;;;;5012483;28;20026;-46
2021/12/06 06:54:42;;;;;;;43.47;18.17;;;1.60;99.90;;;;;;5011416;28;20588;-46
2021/12/06 06:57:07;;;;;;;36.53;16.17;;;1.60;99.90;;;;;;5012533;28;20033;-44
2021/12/06 06:59:33;;;;;;;35.08;16.48;;;1.70;99.90;;;;;;5012524;28;20029;-44
2021/12/06 07:01:59;;;;;;;30.50;15.60;;;1.70;99.90;;;;;;5009297;28;20034;-44
2021/12/06 07:04:25;;;;;;;35.15;15.80;;;1.70;99.90;;;;;;5012438;28;20037;-46
2021/12/06 07:06:51;;;;;;;31.73;14.82;;;1.80;99.90;;;;;;5012493;28;20034;-47
2021/12/06 07:09:17;;;;;;;34.33;16.05;;;1.80;99.90;;;;;;5011249;28;20112;-43
2021/12/06 07:11:45;;;;;;;28.70;13.80;;;1.80;99.90;;;;;;5012268;28;20116;-44
2021/12/06 07:14:14;;;;;;;29.92;14.65;;;1.80;99.90;;;;;;5012395;28;20093;-44
2021/12/06 07:16:41;;;;;;;33.75;15.60;;;1.80;99.90;;;;;;5012271;28;20049;-49
2021/12/06 07:19:07;;;;;;;30.00;13.93;;;1.80;99.90;;;;;;5012193;28;20026;-44
2021/12/06 07:21:33;;;;;;;29.27;14.45;;;1.90;99.90;;;;;;5011909;28;20025;-46
2021/12/06 07:23:59;;;;;;;34.90;15.88;;;1.90;99.90;;;;;;5011060;28;20076;-44
2021/12/06 07:26:24;;;;;;;27.52;14.05;;;1.90;99.90;;;;;;5012390;28;20113;-47
2021/12/06 07:28:54;;;;;;;33.35;16.08;;;1.90;99.90;;;;;;5012265;28;20040;-47
2021/12/06 07:31:22;;;;;;;35.83;16.42;;;1.90;99.90;;;;;;5012045;28;20424;-46
2021/12/06 07:33:48;;;;;;;31.17;14.57;;;1.90;99.90;;;;;;4998818;28;20474;-46
2021/12/06 07:36:14;;;;;;;32.42;14.40;;;1.90;99.90;;;;;;4975292;28;20018;-47
2021/12/06 07:38:42;;;;;;;30.30;14.40;;;1.90;99.90;;;;;;4991639;28;20030;-46
2021/12/06 07:41:11;;;;;;;30.23;13.18;;;2.00;99.90;;;;;;4992705;28;20959;-45
2021/12/06 07:43:37;;;;;;;34.75;14.90;;;2.00;99.90;;;;;;4994286;28;20026;-45
2021/12/06 07:46:05;;;;;;;38.25;15.02;;;2.00;99.90;;;;;;4996037;28;20120;-47
2021/12/06 07:48:31;;;;;;;32.13;15.00;;;2.00;99.90;;;;;;4996303;28;20094;-43
2021/12/06 07:50:59;;;;;;;32.13;13.73;;;2.00;99.90;;;;;;4995949;28;20054;-48
2021/12/06 07:53:28;;;;;;;22.83;12.05;;;2.10;99.90;;;;;;4994927;28;20050;-49
2021/12/06 07:55:54;;;;;;;30.17;14.75;;;2.10;99.90;;;;;;4996090;28;20037;-48
2021/12/06 07:58:20;;;;;;;27.42;13.60;;;2.20;99.90;;;;;;4978506;28;20026;-46
2021/12/06 08:00:47;;;;;;;28.80;13.38;;;2.20;99.90;;;;;;4978618;28;20036;-44
2021/12/06 08:03:14;;;;;;;31.27;14.50;;;2.20;99.90;;;;;;5004820;28;20061;-46
2021/12/06 08:05:42;;;;;;;29.25;13.23;;;2.20;99.90;;;;;;5015449;28;20116;-46
2021/12/06 08:08:11;;;;;;;29.67;14.13;;;2.20;99.90;;;;;;5014521;28;20030;-49
2021/12/06 08:10:47;;;;;;;28.17;13.25;;;2.30;99.90;;;;;;5015279;28;20365;-44
2021/12/06 08:13:16;;;;;;;26.92;13.10;;;2.30;99.90;;;;;;5015209;28;20030;-47
2021/12/06 08:15:44;;;;;;;29.08;13.38;;;2.30;99.90;;;;;;4997706;28;20418;-45
2021/12/06 08:18:10;;;;;;;31.95;14.70;;;2.30;99.90;;;;;;5015080;28;20030;-46
2021/12/06 08:20:37;;;;;;;27.02;13.50;;;2.30;99.90;;;;;;5015285;28;20516;-48
2021/12/06 08:23:04;;;;;;;25.63;12.63;;;2.30;99.90;;;;;;5015113;28;20026;-51
2021/12/06 08:25:29;;;;;;;32.53;15.07;;;2.30;99.90;;;;;;5014239;28;20080;-44
2021/12/06 08:27:55;;;;;;;23.20;12.80;;;2.30;99.90;;;;;;5015033;28;20084;-52
2021/12/06 08:30:22;;;;;;;25.98;12.63;;;2.30;99.90;;;;;;5015168;28;20030;-48
2021/12/06 08:32:53;;;;;;;27.35;12.32;;;2.40;99.90;;;;;;5014638;28;20037;-48
2021/12/06 08:35:19;;;;;;;19.42;9.63;;;2.40;99.90;;;;;;5015061;28;20044;-46
2021/12/06 08:37:45;;;;;;;20.45;10.23;;;2.50;99.90;;;;;;5014871;28;20030;-48
2021/12/06 08:40:11;;;;;;;21.48;12.02;;;2.50;99.90;;;;;;5013916;28;20032;-43
2021/12/06 08:42:37;;;;;;;19.77;10.32;;;2.60;99.90;;;;;;5014689;28;20112;-46
2021/12/06 08:45:04;;;;;;;24.05;10.77;;;2.60;99.90;;;;;;5014717;28;20093;-48
2021/12/06 08:47:30;;;;;;;23.27;10.60;;;2.70;99.90;;;;;;5014503;28;20501;-44
2021/12/06 08:49:55;;;;;;;21.45;10.98;;;2.70;99.90;;;;;;5014562;28;20076;-45
2021/12/06 08:52:21;;;;;;;21.00;10.90;;;2.80;99.90;;;;;;4996966;28;20033;-47
2021/12/06 08:54:48;;;;;;;18.67;10.57;;;2.80;99.90;;;;;;4995815;28;20088;-47
2021/12/06 08:57:14;;;;;;;21.83;11.15;;;2.90;99.90;;;;;;5014525;28;20485;-46
2021/12/06 08:59:39;;;;;;;21.25;10.93;;;2.90;99.90;;;;;;5014754;28;20413;-48
2021/12/06 09:02:05;;;;;;;19.90;9.45;;;2.90;99.90;;;;;;5014345;28;20030;-49
2021/12/06 09:04:34;;;;;;;19.30;10.02;;;2.90;99.90;;;;;;4996740;28;20029;-45
2021/12/06 09:07:01;;;;;;;18.08;8.90;;;2.90;99.90;;;;;;5014286;28;20466;-45
2021/12/06 09:09:27;;;;;;;20.33;9.93;;;3.00;99.90;;;;;;5013427;28;20326;-47
2021/12/06 09:11:55;;;;;;;16.58;9.30;;;2.90;99.90;;;;;;5013980;28;20034;-48
2021/12/06 09:14:21;;;;;;;19.65;9.75;;;2.90;99.90;;;;;;5014138;28;20053;-49
2021/12/06 09:16:47;;;;;;;17.38;9.30;;;2.80;99.90;;;;;;5014219;28;20018;-47
2021/12/06 09:19:15;;;;;;;15.80;9.50;;;2.80;99.90;;;;;;5014057;28;20025;-46
2021/12/06 09:21:43;;;;;;;21.38;9.48;;;2.80;99.90;;;;;;5014062;28;20129;-45
2021/12/06 09:24:13;;;;;;;21.25;9.95;;;2.80;99.90;;;;;;5013042;28;20026;-46
2021/12/06 09:26:39;;;;;;;20.02;9.50;;;2.80;99.90;;;;;;5013915;28;20029;-51
2021/12/06 09:29:05;;;;;;;18.58;9.27;;;2.80;99.90;;;;;;5013791;28;20033;-46
2021/12/06 09:31:32;;;;;;;17.27;8.65;;;2.80;99.90;;;;;;5013934;28;20494;-47
2021/12/06 09:33:58;;;;;;;17.60;9.30;;;2.80;99.90;;;;;;5013623;28;20030;-45
2021/12/06 09:36:24;;;;;;;16.85;9.30;;;2.80;99.90;;;;;;4996375;28;20028;-49
2021/12/06 09:38:50;;;;;;;16.83;8.18;;;2.80;99.90;;;;;;4995091;28;20508;-46
2021/12/06 09:41:22;;;;;;;16.25;8.07;;;2.80;99.90;;;;;;5013818;28;20022;-46
2021/12/06 09:43:49;;;;;;;14.77;7.70;;;2.80;99.90;;;;;;5013488;28;20101;-43
2021/12/06 09:46:15;;;;;;;17.42;8.45;;;2.80;99.90;;;;;;5013773;28;20076;-47
2021/12/06 09:48:43;;;;;;;17.77;8.57;;;2.80;99.90;;;;;;5013370;28;20034;-46
2021/12/06 09:51:17;;;;;;;18.17;8.63;;;2.80;99.90;;;;;;4996243;28;20044;-47
2021/12/06 09:53:44;;;;;;;15.02;7.80;;;2.80;99.90;;;;;;5012347;28;20064;-46
2021/12/06 09:56:18;;;;;;;15.80;7.60;;;2.80;99.90;;;;;;5013290;28;20014;-44
2021/12/06 09:58:45;;;;;;;13.50;7.47;;;2.80;99.90;;;;;;5013386;28;20068;-45
2021/12/06 10:01:17;;;;;;;13.73;7.07;;;2.90;99.90;;;;;;4996048;28;20125;-44
2021/12/06 10:03:46;;;;;;;15.40;7.60;;;2.90;99.90;;;;;;5013249;28;20534;-46
2021/12/06 10:06:12;;;;;;;16.92;8.82;;;2.90;99.90;;;;;;5013097;28;20041;-47
2021/12/06 10:08:44;;;;;;;18.27;8.80;;;2.90;99.90;;;;;;5012168;28;20377;-52
2021/12/06 10:11:12;;;;;;;17.35;9.00;;;2.90;99.90;;;;;;5013201;28;20077;-45
2021/12/06 10:13:39;;;;;;;19.30;9.10;;;2.80;99.90;;;;;;5013075;28;20107;-47
2021/12/06 10:16:05;;;;;;;17.13;9.23;;;2.80;99.90;;;;;;5013248;28;20029;-46
2021/12/06 10:18:32;;;;;;;14.27;8.25;;;2.80;99.90;;;;;;5013107;28;20029;-44
2021/12/06 10:20:58;;;;;;;16.25;9.10;;;2.80;99.90;;;;;;5013174;28;20053;-49
2021/12/06 10:23:24;;;;;;;16.13;8.52;;;2.80;99.90;;;;;;5011545;28;20059;-47
2021/12/06 10:25:53;;;;;;;14.93;8.43;;;2.80;99.90;;;;;;5012923;28;20452;-45
2021/12/06 10:28:20;;;;;;;15.63;8.30;;;2.80;99.90;;;;;;5012915;28;20041;-49
2021/12/06 10:30:52;;;;;;;11.98;6.45;;;2.70;99.90;;;;;;5013066;28;20493;-48
2021/12/06 10:33:20;;;;;;;18.23;9.35;;;2.80;99.90;;;;;;5012840;28;20026;-44
2021/12/06 10:35:49;;;;;;;18.30;9.90;;;2.80;99.90;;;;;;5013152;28;20402;-48
2021/12/06 10:38:24;;;;;;;15.55;8.75;;;2.70;99.90;;;;;;5011998;28;20084;-46
2021/12/06 10:40:54;;;;;;;14.25;8.82;;;2.70;99.90;;;;;;5012902;28;20049;-46
2021/12/06 10:43:20;;;;;;;13.45;8.23;;;2.70;99.90;;;;;;5012713;28;20477;-48
2021/12/06 10:45:49;;;;;;;16.13;9.07;;;2.70;99.90;;;;;;5012923;28;20072;-46
2021/12/06 10:48:22;;;;;;;14.77;7.68;;;2.70;99.90;;;;;;5012684;28;20380;-47
2021/12/06 10:50:53;;;;;;;15.07;8.50;;;2.80;99.90;;;;;;5012722;28;20216;-48
2021/12/06 10:53:38;;;;;;;16.17;9.70;;;2.80;99.90;;;;;;5011639;28;20499;-44
2021/12/06 10:56:14;;;;;;;17.38;9.07;;;2.80;99.90;;;;;;5012879;28;20022;-47
2021/12/06 10:58:40;;;;;;;19.02;8.95;;;2.80;99.90;;;;;;5012508;28;20029;-47
2021/12/06 11:01:08;;;;;;;14.88;8.15;;;2.80;99.90;;;;;;5012757;28;20040;-48
2021/12/06 11:03:45;;;;;;;18.23;10.07;;;2.80;99.90;;;;;;5012779;28;20030;-44
2021/12/06 11:06:33;;;;;;;15.60;9.40;;;2.80;99.90;;;;;;5012809;28;20080;-47
2021/12/06 11:09:04;;;;;;;14.65;8.52;;;2.80;99.90;;;;;;5011613;28;20105;-45
2021/12/06 11:11:35;;;;;;;15.68;8.20;;;2.80;99.90;;;;;;5012711;28;20030;-48
2021/12/06 11:14:07;;;;;;;16.80;9.23;;;2.90;99.90;;;;;;5012293;28;20477;-45
2021/12/06 11:16:37;;;;;;;16.73;9.30;;;2.90;99.90;;;;;;5012719;28;20053;-45
2021/12/06 11:19:10;;;;;;;17.70;9.57;;;2.90;99.90;;;;;;5014928;28;20104;-46
2021/12/06 11:21:54;;;;;;;17.73;9.00;;;2.80;99.90;;;;;;4998755;28;20030;-47
2021/12/06 11:24:27;;;;;;;17.67;9.60;;;2.70;99.90;;;;;;5015254;28;20029;-46
2021/12/06 11:27:03;;;;;;;16.50;8.85;;;2.80;99.90;;;;;;5016302;28;20026;-48
2021/12/06 11:29:38;;;;;;;;;;;2.70;99.90;;;;;;5016469;28;20029;-51
2021/12/06 11:32:12;;;;;;;13.85;7.43;;;2.80;99.90;;;;;;5016039;28;20008;-45
2021/12/06 11:34:50;;;;;;;16.55;8.68;;;2.80;99.90;;;;;;5015925;28;20083;-46
2021/12/06 11:37:18;;;;;;;14.13;8.15;;;2.80;99.90;;;;;;5016373;28;20405;-48
2021/12/06 11:39:49;;;;;;;14.43;7.93;;;2.90;99.90;;;;;;5015033;28;20104;-49
2021/12/06 11:42:15;;;;;;;16.20;8.50;;;3.00;99.90;;;;;;5016029;28;20049;-47
2021/12/06 11:44:43;;;;;;;17.33;8.25;;;2.90;99.90;;;;;;5015639;28;20492;-46
2021/12/06 11:47:18;;;;;;;16.98;8.85;;;2.90;99.90;;;;;;5015890;28;20318;-47
2021/12/06 11:49:56;;;;;;;12.47;6.80;;;3.00;99.90;;;;;;5015694;28;20046;-44
2021/12/06 11:52:29;;;;;;;12.00;7.32;;;3.00;99.90;;;;;;5015868;28;20069;-46
2021/12/06 11:54:59;;;;;;;13.00;7.47;;;3.00;99.90;;;;;;5014653;28;20650;-47
2021/12/06 11:57:54;;;;;;;15.68;8.48;;;3.00;99.90;;;;;;5015668;28;20030;-49
2021/12/06 12:00:21;;;;;;;20.58;9.57;;;3.00;99.90;;;;;;5015496;28;20025;-49
2021/12/06 12:02:54;;;;;;;16.05;8.27;;;3.10;99.90;;;;;;5015492;28;20097;-48
2021/12/06 12:05:30;;;;;;;18.25;9.10;;;3.10;99.90;;;;;;5015462;28;20033;-45
2021/12/06 12:08:11;;;;;;;17.08;8.93;;;3.20;99.90;;;;;;4997974;28;20026;-48
2021/12/06 12:10:50;;;;;;;13.98;7.75;;;3.20;99.90;;;;;;5015472;28;20021;-45
2021/12/06 12:13:35;;;;;;;16.92;8.00;;;3.20;99.90;;;;;;5015455;28;20053;-45
2021/12/06 12:16:05;;;;;;;13.55;7.90;;;3.30;99.90;;;;;;5014879;28;20029;-46
2021/12/06 12:18:32;;;;;;;14.82;7.45;;;3.30;99.90;;;;;;5015319;28;20029;-47
2021/12/06 12:20:59;;;;;;;16.50;8.60;;;3.30;99.90;;;;;;5015227;28;20029;-49
2021/12/06 12:23:30;;;;;;;12.25;6.90;;;3.30;99.90;;;;;;5014261;28;20030;-49
2021/12/06 12:26:03;;;;;;;12.90;7.22;;;3.30;99.90;;;;;;5015071;28;20106;-51
2021/12/06 12:28:39;;;;;;;12.23;6.65;;;3.30;99.90;;;;;;5014821;28;20105;-44
2021/12/06 12:31:09;;;;;;;13.18;6.85;;;3.30;99.90;;;;;;5014880;28;20041;-46
2021/12/06 12:33:36;;;;;;;12.75;6.90;;;3.30;99.90;;;;;;5015037;28;20030;-50
2021/12/06 12:36:06;;;;;;;14.90;7.28;;;3.40;99.90;;;;;;5014857;28;20133;-47
2021/12/06 12:38:34;;;;;;;14.35;7.57;;;3.40;99.90;;;;;;5014071;28;20025;-49
2021/12/06 12:41:06;;;;;;;10.68;6.28;;;3.40;99.90;;;;;;5014723;28;20033;-47
2021/12/06 12:43:45;;;;;;;14.98;7.38;;;3.40;99.90;;;;;;5014908;28;20021;-46
2021/12/06 12:46:19;;;;;;;11.65;6.20;;;3.40;99.90;;;;;;5014623;28;20026;-50
2021/12/06 12:48:51;;;;;;;12.07;6.55;;;3.40;99.90;;;;;;5014626;28;20037;-45
2021/12/06 12:51:26;;;;;;;14.27;7.53;;;3.50;99.90;;;;;;5014542;28;20030;-47
2021/12/06 12:54:06;;;;;;;13.90;6.95;;;3.40;99.90;;;;;;5013684;28;20428;-46
2021/12/06 12:56:36;;;;;;;11.68;6.40;;;3.40;99.90;;;;;;5014558;28;20021;-49
2021/12/06 12:59:23;;;;;;;13.43;7.15;;;3.50;99.90;;;;;;5014584;28;20052;-47
2021/12/06 13:02:41;;;;;;;15.68;7.95;;;3.50;99.90;;;;;;5014354;28;20465;-47
2021/12/06 13:05:11;;;;;;;12.07;7.22;;;3.50;99.90;;;;;;4962127;28;20477;-46